KCLT/CLT METAR and TAF weather

Enter ICAO airport designator
Station Type Date Time Source
KCLT METAR 2020/09/18 18:52 UTC NOAA

KCLT 181852Z 02012KT 10SM SCT034 BKN043 OVC250 27/18 A2994 RMK AO2 SLP131 T02670178


Station Type Date Time Source
KCLT Decoded METAR 2020/09/18 18:52 UTC NOAA

CHARLOTTE/DOUGLAS INTERNATIONAL , NC, United States (KCLT) 35-13N 80-57W 220M
Sep 18, 2020 - 02:52 PM EDT / 2020.09.18 1852 UTC
Wind: from the NNE (020 degrees) at 14 MPH (12 KT):0
Visibility: 10 mile(s):0
Sky conditions: overcast
Temperature: 80.1 F (26.7 C)
Dew Point: 64.0 F (17.8 C)
Relative Humidity: 58%
Pressure (altimeter): 29.94 in. Hg (1013 hPa)
ob: KCLT 181852Z 02012KT 10SM SCT034 BKN043 OVC250 27/18 A2994 RMK AO2 SLP131 T02670178
cycle: 19

Station Type Date Time Source
KCLT TAF 2020/09/18 18:39 UTC NOAA

TAF KCLT 181737Z 1818/1924 02010G17KT P6SM SCT030 BKN040
FM182000 02011KT P6SM BKN040
FM190000 02008KT P6SM SCT050 BKN250
FM190500 03009KT P6SM BKN050
FM190600 03009KT P6SM BKN060

Example: see airport list